Messingham, United Kingdom
Current Conditions -  °F | °C
As of 6:50 AM on Sunday 23 Nov 2014 (Local Time) from EGNJ Reporting Station
Moderate Rain Moderate Rain  
Wind Chill:   Ceiling: 3500
Heat Index:   Visibility: 3mi
Dew Point:   Wind: 8mph
Humidity: 93%   Direction: 290°WNW
Pressure: 30"   Gusts: NA
Location:  53.53°N, 0.65°W
Report Text: EGNJ 230650Z 29007KT 5000 RA BKN035 09/08 Q1016
Loading
Personal Weather Stations






























Interactive Weather Map New forecast layout! Learn more

10-Day Weather Forecast

Advertisements
Track Severe Weather on mobile